createdAt,value
2023-04-06T00:01:43.334Z,95076.38
2023-04-06T00:04:11.123Z,95072.34
2023-04-06T00:06:38.802Z,95069.50
2023-04-06T00:09:06.889Z,95069.03
2023-04-06T00:11:34.711Z,95073.53
2023-04-06T00:14:02.344Z,95070.88
2023-04-06T00:16:31.415Z,95066.69
2023-04-06T00:18:59.061Z,95072.72
2023-04-06T00:21:27.736Z,95073.72
2023-04-06T00:23:55.430Z,95071.03
2023-04-06T00:26:23.052Z,95066.56
2023-04-06T00:28:52.944Z,95074.44
2023-04-06T00:31:20.568Z,95074.25
2023-04-06T00:33:50.389Z,95067.09
2023-04-06T00:36:17.987Z,95066.59
2023-04-06T00:38:45.647Z,95070.13
2023-04-06T00:41:13.479Z,95067.47
2023-04-06T00:43:41.122Z,95061.47
2023-04-06T00:46:08.727Z,95062.81
2023-04-06T00:48:36.370Z,95056.97
2023-04-06T00:51:05.625Z,95062.81
2023-04-06T00:53:33.254Z,95063.31
2023-04-06T00:56:01.024Z,95063.38
2023-04-06T00:58:28.720Z,95052.69
2023-04-06T01:00:56.486Z,95063.16
2023-04-06T01:03:24.650Z,95060.00
2023-04-06T01:05:56.752Z,95063.56
2023-04-06T01:08:25.852Z,95065.53
2023-04-06T01:10:53.573Z,95064.38
2023-04-06T01:13:21.185Z,95063.72
2023-04-06T01:15:48.912Z,95062.72
2023-04-06T01:18:16.556Z,95063.41
2023-04-06T01:20:44.156Z,95061.22
2023-04-06T01:23:13.137Z,95056.38
2023-04-06T01:25:40.757Z,95054.69
2023-04-06T01:28:08.384Z,95056.38
2023-04-06T01:30:36.094Z,95058.56
2023-04-06T01:33:03.780Z,95059.06
2023-04-06T01:35:32.485Z,95051.03
2023-04-06T01:38:00.696Z,95041.03
2023-04-06T01:40:29.701Z,95055.06
2023-04-06T01:42:57.372Z,95041.88
2023-04-06T01:45:26.332Z,95034.03
2023-04-06T01:47:54.079Z,95034.38
2023-04-06T01:50:21.778Z,95034.38
2023-04-06T01:52:49.370Z,95033.56
2023-04-06T01:55:17.088Z,95035.53
2023-04-06T01:57:46.271Z,95036.38
2023-04-06T02:00:15.429Z,95040.88
2023-04-06T02:02:43.103Z,95029.69
2023-04-06T02:05:11.193Z,95037.88
2023-04-06T02:07:38.796Z,95037.06
2023-04-06T02:10:08.777Z,95033.06
2023-04-06T02:12:36.384Z,95036.91
2023-04-06T02:15:05.872Z,95032.72
2023-04-06T02:17:33.522Z,95033.91
2023-04-06T02:20:01.139Z,95029.72
2023-04-06T02:22:28.744Z,95034.41
2023-04-06T02:24:56.407Z,95034.41
2023-04-06T02:27:24.069Z,95028.06
2023-04-06T02:29:51.663Z,95024.53
2023-04-06T02:32:20.767Z,95021.22
2023-04-06T02:34:48.419Z,95020.72
2023-04-06T02:37:16.082Z,95021.06
2023-04-06T02:39:43.684Z,95029.91
2023-04-06T02:42:11.271Z,95024.22
2023-04-06T02:44:38.935Z,95026.56
2023-04-06T02:47:06.595Z,95022.25
2023-04-06T02:49:35.604Z,95019.56
2023-04-06T02:52:03.662Z,95020.41
2023-04-06T02:54:31.323Z,95021.75
2023-04-06T02:56:58.899Z,95015.72
2023-04-06T02:59:26.653Z,95019.41
2023-04-06T03:01:54.364Z,95010.91
2023-04-06T03:04:23.798Z,95014.72
2023-04-06T03:06:52.775Z,95015.22
2023-04-06T03:09:20.796Z,95024.56
2023-04-06T03:11:48.388Z,95015.22
2023-04-06T03:14:18.270Z,95023.06
2023-04-06T03:16:45.967Z,95016.56
2023-04-06T03:19:13.600Z,95012.38
2023-04-06T03:21:41.224Z,95012.75
2023-04-06T03:24:10.590Z,95016.56
2023-04-06T03:26:38.243Z,95020.22
2023-04-06T03:29:06.138Z,95013.72
2023-04-06T03:31:33.980Z,95019.41
2023-04-06T03:34:01.658Z,95025.56
2023-04-06T03:36:29.314Z,95018.91
2023-04-06T03:38:56.917Z,95020.03
2023-04-06T03:41:26.004Z,95021.88
2023-04-06T03:43:53.645Z,95022.03
2023-04-06T03:46:21.261Z,95021.22
2023-04-06T03:48:50.736Z,95028.19
2023-04-06T03:51:18.303Z,95025.69
2023-04-06T03:53:45.983Z,95033.03
2023-04-06T03:56:13.545Z,95039.03
2023-04-06T03:58:42.489Z,95028.19
2023-04-06T04:01:10.321Z,95019.53
2023-04-06T04:03:38.088Z,95035.38
2023-04-06T04:06:05.781Z,95025.38
2023-04-06T04:08:33.428Z,95037.06
2023-04-06T04:11:01.042Z,95036.19
2023-04-06T04:13:28.694Z,95032.69
2023-04-06T04:15:57.639Z,95039.66
2023-04-06T04:18:26.060Z,95034.81
2023-04-06T04:20:53.662Z,95036.16
2023-04-06T04:23:21.304Z,95031.66
2023-04-06T04:25:48.929Z,95036.31
2023-04-06T04:28:16.558Z,95037.63
2023-04-06T04:30:44.173Z,95043.97
2023-04-06T04:33:13.205Z,95042.94
2023-04-06T04:35:40.889Z,95046.13
2023-04-06T04:38:08.566Z,95037.63
2023-04-06T04:40:36.203Z,95038.50
2023-04-06T04:43:03.893Z,95034.97
2023-04-06T04:45:31.583Z,95036.00
2023-04-06T04:47:59.287Z,95040.16
2023-04-06T04:50:28.439Z,95048.66
2023-04-06T04:52:56.067Z,95043.16
2023-04-06T04:55:23.720Z,95037.66
2023-04-06T04:57:51.401Z,95037.81
2023-04-06T05:00:19.378Z,95040.34
2023-04-06T05:02:47.072Z,95043.34
2023-04-06T05:05:14.758Z,95043.00
2023-04-06T05:07:43.781Z,95050.53
2023-04-06T05:10:11.917Z,95052.56
2023-04-06T05:12:39.634Z,95050.88
2023-04-06T05:15:08.151Z,95041.38
2023-04-06T05:17:36.221Z,95048.72
2023-04-06T05:20:03.944Z,95047.56
2023-04-06T05:22:31.644Z,95050.75
2023-04-06T05:25:00.679Z,95051.91
2023-04-06T05:27:28.334Z,95054.91
2023-04-06T05:29:57.791Z,95056.75
2023-04-06T05:32:25.853Z,95054.91
2023-04-06T05:34:53.770Z,95051.06
2023-04-06T05:37:21.391Z,95055.06
2023-04-06T05:39:49.054Z,95062.56
2023-04-06T05:42:18.440Z,95064.72
2023-04-06T05:44:46.096Z,95066.03
2023-04-06T05:47:13.656Z,95068.16
2023-04-06T05:49:41.396Z,95069.31
2023-04-06T05:52:09.004Z,95069.59
2023-04-06T05:54:37.331Z,95064.53
2023-04-06T05:57:05.350Z,95063.47
2023-04-06T05:59:34.399Z,95065.41
2023-04-06T06:02:02.734Z,95065.34
2023-04-06T06:04:30.539Z,95070.22
2023-04-06T06:06:58.567Z,95074.50
2023-04-06T06:09:26.272Z,95074.41
2023-04-06T06:11:54.165Z,95078.63
2023-04-06T06:14:22.841Z,95075.63
2023-04-06T06:16:51.894Z,95067.91
2023-04-06T06:19:19.545Z,95068.56
2023-04-06T06:21:47.282Z,95062.19
2023-04-06T06:24:14.968Z,95074.22
2023-04-06T06:26:42.598Z,95065.38
2023-04-06T06:29:10.326Z,95065.16
2023-04-06T06:31:38.142Z,95066.06
2023-04-06T06:34:07.161Z,95062.59
2023-04-06T06:36:36.280Z,95067.47
2023-04-06T06:39:04.644Z,95060.25
2023-04-06T06:41:32.320Z,95066.13
2023-04-06T06:43:59.953Z,95067.50
2023-04-06T06:46:27.597Z,95062.06
2023-04-06T06:48:55.353Z,95060.88
2023-04-06T06:51:24.370Z,95063.97
2023-04-06T06:53:52.031Z,95067.69
2023-04-06T06:56:19.795Z,95065.38
2023-04-06T06:58:47.581Z,95072.28
2023-04-06T07:01:15.434Z,95079.19
2023-04-06T07:03:43.254Z,95080.94
2023-04-06T07:06:11.071Z,95071.47
2023-04-06T07:08:40.186Z,95079.13
2023-04-06T07:11:07.829Z,95076.44
2023-04-06T07:13:35.617Z,95087.84
2023-04-06T07:16:03.260Z,95074.97
2023-04-06T07:18:30.987Z,95080.34
2023-04-06T07:20:58.654Z,95079.75
2023-04-06T07:23:26.353Z,95080.41
2023-04-06T07:25:55.705Z,95072.31
2023-04-06T07:28:23.351Z,95078.13
2023-04-06T07:30:51.476Z,95081.81
2023-04-06T07:33:19.143Z,95089.06
2023-04-06T07:35:46.776Z,95092.91
2023-04-06T07:38:14.573Z,95091.91
2023-04-06T07:40:42.268Z,95088.16
2023-04-06T07:43:11.328Z,95079.03
2023-04-06T07:45:38.993Z,95075.25
2023-04-06T07:48:06.880Z,95076.13
2023-04-06T07:50:34.517Z,95081.91
2023-04-06T07:53:02.188Z,95080.44
2023-04-06T07:55:29.910Z,95079.75
2023-04-06T07:57:57.578Z,95086.25
2023-04-06T08:00:26.596Z,95079.34
2023-04-06T08:02:54.361Z,95074.97
2023-04-06T08:05:22.286Z,95076.94
2023-04-06T08:07:49.978Z,95079.72
2023-04-06T08:10:17.750Z,95079.28
2023-04-06T08:12:45.413Z,95083.56
2023-04-06T08:15:13.087Z,95084.91
2023-04-06T08:17:42.127Z,95080.41
2023-04-06T08:20:10.443Z,95082.34
2023-04-06T08:22:38.025Z,95077.31
2023-04-06T08:25:06.488Z,95074.53
2023-04-06T08:27:34.166Z,95078.75
2023-04-06T08:30:02.654Z,95074.19
2023-04-06T08:32:30.263Z,95076.72
2023-04-06T08:34:59.582Z,95069.19
2023-04-06T08:37:27.448Z,95080.06
2023-04-06T08:39:55.086Z,95073.47
2023-04-06T08:42:23.696Z,95080.06
2023-04-06T08:44:53.324Z,95074.75
2023-04-06T08:47:24.553Z,95078.56
2023-04-06T08:49:53.096Z,95072.88
2023-04-06T08:52:22.073Z,95064.25
2023-04-06T08:54:49.747Z,95073.91
2023-04-06T08:57:17.671Z,95070.50
2023-04-06T08:59:46.196Z,95070.06
2023-04-06T09:02:19.111Z,95066.47
2023-04-06T09:04:48.201Z,95071.63
2023-04-06T09:07:16.517Z,95072.03
2023-04-06T09:09:48.825Z,95067.28
2023-04-06T09:12:24.815Z,95062.00
2023-04-06T09:14:52.521Z,95062.09
2023-04-06T09:17:23.704Z,95065.16
2023-04-06T09:19:51.697Z,95059.56
2023-04-06T09:22:20.125Z,95066.88
2023-04-06T09:24:50.489Z,95061.28
2023-04-06T09:27:18.129Z,95061.94
2023-04-06T09:29:46.248Z,95061.59
2023-04-06T09:32:17.606Z,95053.81
2023-04-06T09:34:50.881Z,95054.19
2023-04-06T09:37:19.895Z,95057.47
2023-04-06T09:39:49.546Z,95052.72
2023-04-06T09:42:26.782Z,95057.22
2023-04-06T09:44:54.476Z,95059.66
2023-04-06T09:47:25.201Z,95054.19
2023-04-06T09:49:59.507Z,95042.25
2023-04-06T09:52:29.189Z,95038.31
2023-04-06T09:55:01.888Z,95041.41
2023-04-06T09:57:33.814Z,95040.38
2023-04-06T10:00:09.160Z,95037.91
2023-04-06T10:02:43.683Z,95047.53
2023-04-06T10:05:12.893Z,95042.09
2023-04-06T10:07:49.770Z,95039.44
2023-04-06T10:10:28.661Z,95037.34
2023-04-06T10:12:56.756Z,95037.09
2023-04-06T10:15:25.263Z,95034.56
2023-04-06T10:17:53.373Z,95038.66
2023-04-06T10:20:25.045Z,95033.81
2023-04-06T10:22:57.872Z,95033.41
2023-04-06T10:25:30.966Z,95031.28
2023-04-06T10:28:02.561Z,95027.75
2023-04-06T10:30:30.728Z,95035.31
2023-04-06T10:32:58.495Z,95029.13
2023-04-06T10:35:26.581Z,95034.47
2023-04-06T10:37:55.741Z,95014.91
2023-04-06T10:40:27.534Z,95019.75
2023-04-06T10:42:57.827Z,95012.94
2023-04-06T10:45:26.690Z,95011.91
2023-04-06T10:47:54.935Z,95001.78
2023-04-06T10:50:23.797Z,95006.47
2023-04-06T10:53:01.448Z,95009.84
2023-04-06T10:55:30.018Z,95008.00
2023-04-06T10:57:59.025Z,95004.22
2023-04-06T11:00:36.072Z,95001.75
2023-04-06T11:03:11.012Z,95001.31
2023-04-06T11:05:38.697Z,95000.31
2023-04-06T11:08:06.711Z,95003.56
2023-04-06T11:10:34.316Z,95004.41
2023-04-06T11:13:03.499Z,95013.06
2023-04-06T11:15:38.102Z,95002.38
2023-04-06T11:18:07.132Z,95007.28
2023-04-06T11:20:34.857Z,94992.91
2023-04-06T11:23:02.929Z,94993.81
2023-04-06T11:25:32.343Z,94994.25
2023-04-06T11:28:00.115Z,94998.06
2023-04-06T11:30:29.157Z,94985.25
2023-04-06T11:33:02.726Z,94985.41
2023-04-06T11:35:33.659Z,94983.06
2023-04-06T11:38:05.049Z,94977.41
2023-04-06T11:40:34.182Z,94969.44
2023-04-06T11:43:01.824Z,94968.28
2023-04-06T11:45:41.722Z,94969.84
2023-04-06T11:48:20.103Z,94967.72
2023-04-06T11:50:48.802Z,94963.94
2023-04-06T11:53:16.465Z,94957.16
2023-04-06T11:55:47.701Z,94957.69
2023-04-06T11:58:15.977Z,94968.69
2023-04-06T12:00:47.381Z,94963.63
2023-04-06T12:03:15.554Z,94962.56
2023-04-06T12:05:43.308Z,94954.53
2023-04-06T12:08:10.931Z,94957.09
2023-04-06T12:10:38.559Z,94949.88
2023-04-06T12:13:06.386Z,94951.81
2023-04-06T12:15:34.367Z,94950.84
2023-04-06T12:18:03.521Z,94954.47
2023-04-06T12:20:31.236Z,94950.22
2023-04-06T12:22:58.842Z,94950.09
2023-04-06T12:25:26.456Z,94939.00
2023-04-06T12:27:54.104Z,94937.25
2023-04-06T12:30:21.876Z,94936.59
2023-04-06T12:32:51.296Z,94953.25
2023-04-06T12:35:21.926Z,94945.41
2023-04-06T12:37:49.541Z,94935.19
2023-04-06T12:40:17.330Z,94937.09
2023-04-06T12:42:46.649Z,94934.25
2023-04-06T12:45:14.366Z,94938.72
2023-04-06T12:47:42.050Z,94927.16
2023-04-06T12:50:10.368Z,94932.69
2023-04-06T12:52:39.426Z,94933.03
2023-04-06T12:55:07.965Z,94923.50
2023-04-06T12:57:35.789Z,94913.66
2023-04-06T13:00:04.713Z,94915.25
2023-04-06T13:02:33.618Z,94925.44
2023-04-06T13:05:01.339Z,94926.34
2023-04-06T13:07:28.957Z,94924.94
2023-04-06T13:09:58.193Z,94923.22
2023-04-06T13:12:27.044Z,94923.19
2023-04-06T13:14:54.676Z,94921.13
2023-04-06T13:17:23.612Z,94911.06
2023-04-06T13:19:51.447Z,94919.09
2023-04-06T13:22:19.086Z,94920.25
2023-04-06T13:24:47.231Z,94916.28
2023-04-06T13:27:16.197Z,94915.22
2023-04-06T13:29:44.100Z,94915.13
2023-04-06T13:32:11.948Z,94914.31
2023-04-06T13:34:39.624Z,94917.00
2023-04-06T13:37:07.325Z,94896.34
2023-04-06T13:39:34.994Z,94904.44
2023-04-06T13:42:03.948Z,94895.06
2023-04-06T13:44:33.803Z,94893.25
2023-04-06T13:47:01.388Z,94895.94
2023-04-06T13:49:29.050Z,94890.31
2023-04-06T13:51:56.740Z,94890.59
2023-04-06T13:54:24.429Z,94890.16
2023-04-06T13:56:53.508Z,94880.75
2023-04-06T13:59:21.143Z,94886.06
2023-04-06T14:01:50.337Z,94888.03
2023-04-06T14:04:18.044Z,94880.59
2023-04-06T14:06:46.889Z,94885.63
2023-04-06T14:09:14.519Z,94889.00
2023-04-06T14:11:42.210Z,94894.22
2023-04-06T14:14:10.748Z,94891.50
2023-04-06T14:16:38.389Z,94882.00
2023-04-06T14:19:07.412Z,94885.09
2023-04-06T14:21:34.995Z,94888.53
2023-04-06T14:24:02.764Z,94886.63
2023-04-06T14:26:30.389Z,94878.34
2023-04-06T14:28:58.073Z,94878.59
2023-04-06T14:31:25.735Z,94876.03
2023-04-06T14:33:53.418Z,94876.44
2023-04-06T14:36:22.511Z,94876.63
2023-04-06T14:38:50.197Z,94872.91
2023-04-06T14:41:18.640Z,94877.25
2023-04-06T14:43:46.785Z,94875.19
2023-04-06T14:46:14.907Z,94873.13
2023-04-06T14:48:42.562Z,94876.44
2023-04-06T14:51:10.204Z,94865.94
2023-04-06T14:53:39.294Z,94870.13
2023-04-06T14:56:07.634Z,94872.03
2023-04-06T14:58:35.388Z,94864.81
2023-04-06T15:01:03.727Z,94869.78
2023-04-06T15:03:32.127Z,94869.94
2023-04-06T15:06:00.324Z,94871.22
2023-04-06T15:08:27.986Z,94871.94
2023-04-06T15:11:01.130Z,94874.47
2023-04-06T15:13:28.785Z,94872.44
2023-04-06T15:15:56.601Z,94876.50
2023-04-06T15:18:24.248Z,94866.53
2023-04-06T15:20:51.942Z,94867.84
2023-04-06T15:23:19.782Z,94866.28
2023-04-06T15:25:47.387Z,94866.78
2023-04-06T15:28:16.465Z,94864.38
2023-04-06T15:30:44.147Z,94872.41
2023-04-06T15:33:11.892Z,94869.84
2023-04-06T15:35:40.629Z,94863.69
2023-04-06T15:38:08.717Z,94862.13
2023-04-06T15:40:37.207Z,94853.28
2023-04-06T15:43:04.892Z,94857.50
2023-04-06T15:45:33.848Z,94863.06
2023-04-06T15:48:01.560Z,94857.59
2023-04-06T15:50:29.445Z,94862.28
2023-04-06T15:52:57.100Z,94861.97
2023-04-06T15:55:25.035Z,94862.78
2023-04-06T15:57:52.743Z,94858.88
2023-04-06T16:00:21.250Z,94854.75
2023-04-06T16:02:50.437Z,94860.47
2023-04-06T16:05:18.189Z,94859.53
2023-04-06T16:07:45.831Z,94861.84
2023-04-06T16:10:13.517Z,94859.38
2023-04-06T16:12:42.460Z,94852.41
2023-04-06T16:15:13.745Z,94857.00
2023-04-06T16:17:43.273Z,94854.19
2023-04-06T16:20:15.672Z,94853.69
2023-04-06T16:22:43.497Z,94861.00
2023-04-06T16:25:11.863Z,94864.66
2023-04-06T16:27:39.507Z,94867.00
2023-04-06T16:30:08.624Z,94868.41
2023-04-06T16:32:36.364Z,94870.16
2023-04-06T16:35:04.216Z,94867.84
2023-04-06T16:37:33.628Z,94862.50
2023-04-06T16:40:01.421Z,94870.97
2023-04-06T16:42:29.063Z,94867.38
2023-04-06T16:44:56.882Z,94865.06
2023-04-06T16:47:24.751Z,94864.69
2023-04-06T16:49:53.580Z,94869.69
2023-04-06T16:52:21.302Z,94870.31
2023-04-06T16:54:50.872Z,94872.22
2023-04-06T16:57:20.528Z,94870.25
2023-04-06T16:59:48.176Z,94873.09
2023-04-06T17:02:16.294Z,94868.81
2023-04-06T17:04:44.288Z,94865.84
2023-04-06T17:07:11.955Z,94869.66
2023-04-06T17:09:39.555Z,94870.63
2023-04-06T17:12:09.158Z,94871.59
2023-04-06T17:14:36.833Z,94870.94
2023-04-06T17:17:04.506Z,94877.09
2023-04-06T17:19:32.367Z,94881.16
2023-04-06T17:21:59.972Z,94878.34
2023-04-06T17:24:27.585Z,94879.88
2023-04-06T17:26:55.171Z,94874.34
2023-04-06T17:29:24.150Z,94879.13
2023-04-06T17:31:51.773Z,94870.63
2023-04-06T17:34:19.446Z,94879.66
2023-04-06T17:36:47.073Z,94878.03
2023-04-06T17:39:14.725Z,94885.50
2023-04-06T17:41:42.601Z,94884.94
2023-04-06T17:44:10.243Z,94884.69
2023-04-06T17:46:39.238Z,94892.16
2023-04-06T17:49:09.349Z,94883.59
2023-04-06T17:51:37.106Z,94893.88
2023-04-06T17:54:04.851Z,94900.59
2023-04-06T17:56:32.494Z,94896.69
2023-04-06T17:59:00.132Z,94897.97
2023-04-06T18:01:28.001Z,94897.22
2023-04-06T18:03:57.178Z,94902.19
2023-04-06T18:06:25.794Z,94905.00
2023-04-06T18:08:53.926Z,94898.16
2023-04-06T18:11:22.066Z,94904.22
2023-04-06T18:13:50.085Z,94903.97
2023-04-06T18:16:20.336Z,94906.34
2023-04-06T18:18:48.293Z,94915.44
2023-04-06T18:21:17.602Z,94914.63
2023-04-06T18:23:45.529Z,94921.41
2023-04-06T18:26:16.778Z,94919.91
2023-04-06T18:28:44.545Z,94923.97
2023-04-06T18:31:12.214Z,94924.22
2023-04-06T18:33:39.941Z,94924.81
2023-04-06T18:36:09.708Z,94927.81
2023-04-06T18:38:40.364Z,94921.22
2023-04-06T18:41:08.061Z,94925.63
2023-04-06T18:43:36.936Z,94935.84
2023-04-06T18:46:05.158Z,94932.78
2023-04-06T18:48:32.810Z,94941.78
2023-04-06T18:51:02.002Z,94938.91
2023-04-06T18:53:29.921Z,94938.91
2023-04-06T18:55:59.641Z,94935.34
2023-04-06T18:58:27.641Z,94935.91
2023-04-06T19:00:57.328Z,94939.53
2023-04-06T19:03:25.222Z,94941.13
2023-04-06T19:05:52.900Z,94936.31
2023-04-06T19:08:20.810Z,94936.78
2023-04-06T19:10:49.341Z,94946.72
2023-04-06T19:13:18.356Z,94939.44
2023-04-06T19:15:46.258Z,94944.63
2023-04-06T19:18:13.901Z,94947.94
2023-04-06T19:20:41.501Z,94950.59
2023-04-06T19:23:09.375Z,94951.19
2023-04-06T19:25:37.039Z,94943.41
2023-04-06T19:28:04.839Z,94952.66
2023-04-06T19:30:34.162Z,94956.03
2023-04-06T19:33:02.746Z,94949.84
2023-04-06T19:35:30.923Z,94956.06
2023-04-06T19:37:58.542Z,94949.47
2023-04-06T19:40:26.201Z,94950.09
2023-04-06T19:42:53.814Z,94947.00
2023-04-06T19:45:21.447Z,94955.72
2023-04-06T19:47:50.463Z,94953.28
2023-04-06T19:50:18.099Z,94946.19
2023-04-06T19:52:45.736Z,94950.97
2023-04-06T19:55:13.345Z,94947.66
2023-04-06T19:57:41.090Z,94945.38
2023-04-06T20:00:11.006Z,94953.47
2023-04-06T20:02:38.728Z,94966.56
2023-04-06T20:05:08.505Z,94961.13
2023-04-06T20:07:37.801Z,94959.66
2023-04-06T20:10:06.995Z,94958.63
2023-04-06T20:12:34.619Z,94958.63
2023-04-06T20:15:02.233Z,94958.63
2023-04-06T20:17:29.843Z,94959.47
2023-04-06T20:19:57.435Z,94962.00
2023-04-06T20:22:26.408Z,94967.22
2023-04-06T20:24:54.089Z,94962.41
2023-04-06T20:27:22.140Z,94964.09
2023-04-06T20:29:49.762Z,94965.97
2023-04-06T20:32:20.646Z,94962.03
2023-04-06T20:34:48.756Z,94956.41
2023-04-06T20:37:16.605Z,94965.13
2023-04-06T20:39:45.616Z,94965.13
2023-04-06T20:42:13.338Z,94960.00
2023-04-06T20:44:40.995Z,94961.44
2023-04-06T20:47:08.972Z,94969.13
2023-04-06T20:49:36.756Z,94955.03
2023-04-06T20:52:04.416Z,94953.16
2023-04-06T20:54:32.052Z,94959.56
2023-04-06T20:57:01.797Z,94961.44
2023-04-06T20:59:29.739Z,94956.47
2023-04-06T21:01:57.425Z,94952.53
2023-04-06T21:04:25.241Z,94954.16
2023-04-06T21:06:53.080Z,94949.63
2023-04-06T21:09:20.749Z,94954.16
2023-04-06T21:11:48.368Z,94955.00
2023-04-06T21:14:19.491Z,94951.66
2023-04-06T21:16:47.991Z,94953.53
2023-04-06T21:19:15.685Z,94948.75
2023-04-06T21:21:43.462Z,94952.50
2023-04-06T21:24:11.101Z,94936.50
2023-04-06T21:26:38.691Z,94942.50
2023-04-06T21:29:06.323Z,94935.03
2023-04-06T21:31:40.994Z,94934.63
2023-04-06T21:34:10.011Z,94933.81
2023-04-06T21:36:37.911Z,94927.63
2023-04-06T21:39:06.084Z,94929.91
2023-04-06T21:41:34.113Z,94928.06
2023-04-06T21:44:01.829Z,94939.25
2023-04-06T21:46:29.745Z,94935.31
2023-04-06T21:48:58.845Z,94940.09
2023-04-06T21:51:27.490Z,94934.28
2023-04-06T21:53:56.393Z,94932.59
2023-04-06T21:56:25.645Z,94939.25
2023-04-06T21:58:54.221Z,94933.88
2023-04-06T22:01:21.859Z,94933.88
2023-04-06T22:03:49.797Z,94935.31
2023-04-06T22:06:18.994Z,94942.97
2023-04-06T22:08:48.027Z,94942.38
2023-04-06T22:11:16.164Z,94931.16
2023-04-06T22:13:43.797Z,94928.47
2023-04-06T22:16:11.493Z,94928.88
2023-04-06T22:18:39.474Z,94927.66
2023-04-06T22:21:07.373Z,94929.72
2023-04-06T22:23:41.918Z,94924.13
2023-04-06T22:26:10.610Z,94928.69
2023-04-06T22:28:38.693Z,94924.72
2023-04-06T22:31:06.437Z,94923.50
2023-04-06T22:33:34.088Z,94920.41
2023-04-06T22:36:01.746Z,94918.75
2023-04-06T22:38:29.449Z,94923.50
2023-04-06T22:40:58.404Z,94915.44
2023-04-06T22:43:25.997Z,94912.31
2023-04-06T22:45:53.591Z,94916.03
2023-04-06T22:48:21.300Z,94912.94
2023-04-06T22:50:48.954Z,94910.03
2023-04-06T22:53:16.538Z,94910.22
2023-04-06T22:55:44.403Z,94913.53
2023-04-06T22:58:13.397Z,94920.00
2023-04-06T23:00:41.195Z,94920.19
2023-04-06T23:03:08.989Z,94914.59
2023-04-06T23:05:36.699Z,94914.81
2023-04-06T23:08:04.330Z,94909.63
2023-04-06T23:10:31.987Z,94913.53
2023-04-06T23:12:59.587Z,94912.09
2023-04-06T23:15:28.624Z,94916.88
2023-04-06T23:17:56.265Z,94914.78
2023-04-06T23:20:24.112Z,94916.00
2023-04-06T23:22:51.714Z,94907.50
2023-04-06T23:25:19.454Z,94911.44
2023-04-06T23:27:47.090Z,94914.53
2023-04-06T23:30:14.801Z,94908.50
2023-04-06T23:32:43.967Z,94908.31
2023-04-06T23:35:11.910Z,94900.44
2023-04-06T23:37:39.632Z,94908.50
2023-04-06T23:40:08.706Z,94902.72
2023-04-06T23:42:36.442Z,94895.47
2023-04-06T23:45:05.178Z,94910.38
2023-04-06T23:47:32.865Z,94908.97
2023-04-06T23:50:01.894Z,94903.13
2023-04-06T23:52:30.579Z,94906.47
2023-04-06T23:54:58.261Z,94905.59
2023-04-06T23:57:26.019Z,94906.25
2023-04-06T23:59:53.665Z,94895.66
